Latest Weather Observations for Onslow Airport

IDW60801

Issued at 5:54 pm WST Sunday 24 January 2021 (issued every 10 minutes, with the page automatically refreshed every 10 minutes)

About weather observations | Map of weather stations | Latest weather observations for WA | Other Formats
Station Details ID: 005017 Name: ONSLOW AIRPORT Lat: -21.67 Lon: 115.11 Height: 10.5 m
Data from the previous 72 hours. | See also: Recent months at Onslow Airport
Date/Time
WST
Temp
°C
App
Temp
°C
Dew
Point
°C
Rel
Hum
%
Delta-T
°C
Wind Press
QNH
hPa
Press
MSL
hPa
Rain since
9am
mm
Dir  Spd
km/h
Gust
km/h
Spd
kts
Gust
kts
24/05:30pm 31.2 27.5 19.9 51 7.4 W 39 50 21 27 1005.2 1005.1 0.0
24/05:00pm 31.4 27.6 19.7 49 7.7 W 39 50 21 27 1005.0 1004.9 0.0
24/04:55pm 31.6 27.7 19.6 49 7.9 W 39 57 21 31 1005.0 1004.9 0.0
24/04:30pm 31.3 27.2 19.9 50 7.5 WNW 41 50 22 27 1004.8 1004.7 0.0
24/04:00pm 31.3 26.5 19.6 49 7.7 WNW 44 54 24 29 1004.8 1004.7 0.0
24/03:30pm 31.9 27.0 19.5 47 8.1 WNW 44 54 24 29 1005.0 1004.9 0.0
24/03:00pm 33.4 28.6 18.3 40 9.8 WNW 41 52 22 28 1005.4 1005.3 0.0
24/02:54pm 33.4 28.9 18.3 40 9.8 WNW 39 52 21 28 1005.5 1005.4 0.0
24/02:38pm 35.9 30.9 15.1 29 13.0 W 35 52 19 28 1005.6 1005.5 0.0
24/02:36pm 33.9 30.0 18.8 41 9.9 W 37 52 20 28 1005.5 1005.4 0.0
24/02:30pm 34.7 31.0 17.4 35 11.1 W 33 50 18 27 1005.7 1005.6 0.0
24/02:18pm 34.5 29.2 15.4 32 11.9 W 37 57 20 31 1005.6 1005.5 0.0
24/02:14pm 33.8 29.4 17.5 38 10.5 W 37 50 20 27 1005.7 1005.6 0.0
24/02:00pm 34.1 29.3 14.6 31 12.1 WSW 33 44 18 24 1005.9 1005.8 0.0
24/01:30pm 32.8 29.0 18.2 42 9.4 W 35 48 19 26 1006.3 1006.2 0.0
24/01:00pm 33.7 29.9 16.6 36 10.9 W 32 43 17 23 1006.6 1006.5 0.0
24/12:33pm 32.9 30.0 17.1 39 10.1 WSW 28 46 15 25 1007.1 1007.0 0.0
24/12:30pm 33.4 30.2 15.4 34 11.2 WSW 26 39 14 21 1007.2 1007.1 0.0
24/12:00pm 32.3 29.7 14.9 35 10.7 SW 22 32 12 17 1007.7 1007.6 0.0
24/11:30am 32.5 30.5 15.5 36 10.6 SW 20 35 11 19 1008.2 1008.1 0.0
24/11:00am 31.6 29.8 15.5 37 10.0 SW 19 35 10 19 1008.5 1008.4 0.0
24/10:30am 30.5 28.1 16.5 43 8.8 SW 24 33 13 18 1008.8 1008.7 0.0
24/10:00am 29.4 27.6 16.9 47 7.9 SW 22 32 12 17 1009.0 1008.9 0.0
24/09:30am 29.0 26.8 16.9 48 7.6 SW 24 30 13 16 1009.2 1009.1 0.0
24/09:00am 28.0 26.3 17.2 52 6.8 SW 22 30 12 16 1009.2 1009.1 0.0
24/08:30am 27.9 25.9 17.4 52 6.6 SSW 24 35 13 19 1009.3 1009.2 0.0
24/08:00am 27.2 25.3 17.7 56 6.0 SSW 24 32 13 17 1009.1 1009.0 0.0
24/07:30am 26.2 24.3 17.6 59 5.4 SSW 24 32 13 17 1008.9 1008.8 0.0
24/07:00am 25.6 23.3 17.5 61 5.1 SSW 26 32 14 17 1008.8 1008.7 0.0
24/06:30am 25.0 23.5 17.7 64 4.6 SW 22 28 12 15 1008.5 1008.4 0.0
24/06:00am 24.7 22.8 17.7 65 4.4 SW 24 30 13 16 1008.1 1008.0 0.0
24/05:30am 24.8 22.8 17.5 64 4.6 SW 24 33 13 18 1007.6 1007.5 0.0
24/05:00am 24.8 22.5 17.5 64 4.6 SW 26 35 14 19 1007.0 1006.9 0.0
24/04:30am 24.8 22.5 17.5 64 4.6 SW 26 32 14 17 1006.9 1006.8 0.0
24/04:00am 24.9 22.4 18.1 66 4.3 SW 28 35 15 19 1006.7 1006.6 0.0
24/03:30am 25.2 23.2 18.4 66 4.3 SW 26 33 14 18 1006.6 1006.5 0.0
24/03:00am 25.1 23.1 18.3 66 4.3 SW 26 33 14 18 1006.5 1006.4 0.0
24/02:30am 25.4 23.0 18.3 65 4.5 SW 28 33 15 18 1006.4 1006.3 0.0
24/02:00am 25.7 23.4 18.4 64 4.6 SW 28 35 15 19 1006.2 1006.1 0.0
24/01:30am 25.8 23.4 18.2 63 4.8 SW 28 35 15 19 1006.4 1006.3 0.0
24/01:00am 26.0 22.9 18.4 63 4.8 SW 32 37 17 20 1006.6 1006.5 0.0
24/12:30am 26.3 23.8 18.9 63 4.7 SW 30 39 16 21 1006.8 1006.7 0.0
24/12:00am 26.6 25.0 19.2 64 4.8 SW 26 35 14 19 1007.1 1007.0 0.0
 
Date/Time
WST
Temp
°C
App
Temp
°C
Dew
Point
°C
Rel
Hum
%
Delta-T
°C
Wind Press
QNH
hPa
Press
MSL
hPa
Rain since
9am
mm
Dir  Spd
km/h
Gust
km/h
Spd
kts
Gust
kts
23/11:30pm 26.8 23.9 18.9 62 5.1 WSW 32 39 17 21 1007.3 1007.2 0.0
23/11:00pm 27.3 24.2 18.9 60 5.4 SW 33 43 18 23 1007.3 1007.2 0.0
23/10:30pm 27.7 25.3 19.0 59 5.6 SW 30 39 16 21 1007.4 1007.3 0.0
23/10:00pm 28.2 25.5 19.2 58 5.8 SW 32 43 17 23 1007.3 1007.2 0.0
23/09:30pm 28.8 25.9 18.9 55 6.4 WSW 32 41 17 22 1007.0 1006.9 0.0
23/09:00pm 29.5 26.2 18.3 51 7.2 WSW 33 43 18 23 1006.7 1006.6 0.0
23/08:30pm 30.0 26.5 17.8 48 7.8 WSW 33 43 18 23 1006.5 1006.4 0.0
23/08:00pm 30.2 27.6 18.6 49 7.5 WSW 30 41 16 22 1006.3 1006.2 0.0
23/07:30pm 30.5 28.5 19.2 51 7.4 WSW 28 37 15 20 1006.0 1005.9 0.0
23/07:00pm 31.3 29.2 19.0 48 8.0 WSW 28 37 15 20 1005.5 1005.4 0.0
23/06:30pm 31.8 29.5 20.1 50 7.7 W 32 41 17 22 1005.1 1005.0 0.0
23/06:00pm 32.6 29.8 19.5 46 8.6 WSW 33 43 18 23 1004.8 1004.7 0.0
23/05:30pm 33.4 30.2 18.7 41 9.6 WSW 33 48 18 26 1004.5 1004.4 0.0
23/05:00pm 32.8 30.1 21.3 50 7.8 W 37 48 20 26 1004.2 1004.1 0.0
23/04:30pm 32.6 29.7 21.5 52 7.5 W 39 48 21 26 1003.9 1003.8 0.0
23/04:00pm 31.6 27.5 20.8 52 7.2 WNW 43 52 23 28 1004.0 1003.9 0.0
23/03:30pm 31.4 27.6 21.3 55 6.8 WNW 43 52 23 28 1004.1 1004.0 0.0
23/03:00pm 32.0 28.0 20.9 52 7.5 W 43 50 23 27 1004.2 1004.1 0.0
23/02:30pm 33.0 29.0 20.2 47 8.5 WNW 41 50 22 27 1004.1 1004.0 0.0
23/02:08pm 34.0 30.3 20.0 43 9.3 W 39 52 21 28 1004.3 1004.2 0.0
23/02:00pm 34.7 31.4 18.3 38 10.7 WSW 33 44 18 24 1004.4 1004.3 0.0
23/01:30pm 34.7 30.1 14.6 30 12.4 WSW 32 52 17 28 1004.6 1004.5 0.0
23/01:27pm 34.5 29.8 14.4 30 12.4 WSW 32 52 17 28 1004.5 1004.4 0.0
23/01:00pm 33.9 31.0 18.0 39 10.3 WSW 30 43 16 23 1004.8 1004.7 0.0
23/12:30pm 33.8 30.8 18.7 40 9.9 W 32 43 17 23 1004.8 1004.7 0.0
23/12:00pm 32.9 30.2 19.7 45 8.7 W 33 41 18 22 1005.0 1004.9 0.0
23/11:30am 32.7 30.7 16.5 37 10.2 WSW 22 32 12 17 1005.5 1005.4 0.0
23/11:00am 32.4 31.8 17.5 41 9.6 SW 17 28 9 15 1005.9 1005.8 0.0
23/10:30am 30.9 29.1 16.9 43 8.8 SSW 22 30 12 16 1006.1 1006.0 0.0
23/10:00am 29.7 27.8 16.8 45 8.1 SW 22 30 12 16 1006.3 1006.2 0.0
23/09:30am 28.8 27.1 18.0 52 6.9 SW 24 32 13 17 1006.2 1006.1 0.0
23/09:00am 27.7 26.9 18.4 57 6.0 SW 20 26 11 14 1006.1 1006.0 0.0
23/08:30am 26.7 25.3 18.8 62 5.1 SW 24 32 13 17 1005.9 1005.8 0.0
23/08:00am 25.9 24.5 18.8 65 4.5 SW 24 32 13 17 1006.0 1005.9 0.0
23/07:30am 25.3 24.2 18.7 67 4.2 SW 22 28 12 15 1005.6 1005.5 0.0
23/07:00am 24.5 23.8 18.7 70 3.7 SW 20 26 11 14 1005.3 1005.2 0.0
23/06:30am 23.8 23.1 18.7 73 3.2 WSW 20 24 11 13 1005.0 1004.9 0.0
23/06:00am 23.3 23.5 18.6 75 3.0 WSW 15 19 8 10 1004.9 1004.8 0.0
23/05:30am 24.0 23.0 18.9 73 3.2 SW 22 28 12 15 1004.4 1004.3 0.0
23/05:00am 24.1 23.2 19.0 73 3.3 SW 22 28 12 15 1003.9 1003.8 0.0
23/04:30am 24.3 23.2 19.4 74 3.1 SW 24 30 13 16 1003.7 1003.6 0.0
23/04:00am 24.3 23.2 19.4 74 3.2 SW 24 37 13 20 1003.3 1003.2 0.0
23/03:30am 24.6 22.9 19.7 74 3.2 SW 28 39 15 21 1003.1 1003.0 0.0
23/03:00am 24.8 22.2 19.6 73 3.4 SW 32 41 17 22 1003.0 1002.9 0.0
23/02:30am 25.0 22.0 19.8 73 3.4 SW 35 46 19 25 1003.2 1003.1 0.0
23/02:00am 25.2 22.3 20.0 73 3.4 SW 35 44 19 24 1003.2 1003.1 0.0
23/01:30am 25.6 22.0 20.2 72 3.5 SW 39 48 21 26 1003.2 1003.1 0.0
23/01:00am 25.9 23.1 20.2 71 3.7 SW 35 50 19 27 1003.5 1003.4 0.0
23/12:30am 26.2 23.8 20.3 70 3.9 SW 33 44 18 24 1003.7 1003.6 0.0
23/12:00am 26.5 24.1 20.3 68 4.1 SW 33 44 18 24 1004.0 1003.9 0.0
 
Date/Time
WST
Temp
°C
App
Temp
°C
Dew
Point
°C
Rel
Hum
%
Delta-T
°C
Wind Press
QNH
hPa
Press
MSL
hPa
Rain since
9am
mm
Dir  Spd
km/h
Gust
km/h
Spd
kts
Gust
kts
22/11:30pm 26.7 24.3 20.3 68 4.2 SW 33 43 18 23 1004.3 1004.2 0.0
22/11:00pm 27.1 24.6 20.2 66 4.5 SW 33 44 18 24 1004.3 1004.2 0.0
22/10:30pm 27.6 24.4 20.2 64 4.8 SW 37 46 20 25 1004.3 1004.2 0.0
22/10:00pm 28.1 24.7 20.6 63 5.0 SW 39 50 21 27 1004.2 1004.1 0.0
22/09:30pm 28.8 25.5 20.0 59 5.8 WSW 37 48 20 26 1003.6 1003.5 0.0
22/09:00pm 29.7 25.5 18.8 52 7.1 WSW 39 50 21 27 1003.2 1003.1 0.0
22/08:30pm 30.4 25.9 18.2 48 7.8 WSW 39 50 21 27 1002.8 1002.7 0.0
22/08:00pm 30.7 28.3 20.3 53 6.9 WSW 33 46 18 25 1002.6 1002.5 0.0
22/07:30pm 31.0 28.0 20.6 54 6.9 WSW 37 46 20 25 1002.3 1002.2 0.0
22/07:00pm 31.6 30.1 21.7 55 6.7 W 32 41 17 22 1002.0 1001.9 0.0
22/06:30pm 31.4 29.5 22.7 60 6.0 W 37 46 20 25 1001.5 1001.4 0.0
22/06:00pm 31.4 29.0 23.2 61 5.7 WNW 41 50 22 27 1001.5 1001.4 0.0
22/05:30pm 31.8 29.2 23.6 62 5.7 WNW 43 48 23 26 1001.4 1001.3 0.0
22/05:00pm 32.3 29.2 22.7 57 6.6 WNW 43 52 23 28 1001.4 1001.3 0.0
22/04:30pm 32.5 29.2 22.6 56 6.8 WNW 44 52 24 28 1001.3 1001.2 0.0
22/04:00pm 32.9 30.1 23.2 56 6.7 WNW 43 52 23 28 1001.3 1001.2 0.0
22/03:30pm 33.3 29.3 20.1 45 8.8 WNW 41 48 22 26 1001.9 1001.8 0.0
22/03:00pm 34.5 29.2 15.4 32 12.0 NW 37 44 20 24 1002.3 1002.2 0.0
22/02:30pm 34.1 29.8 16.9 36 11.0 NW 35 41 19 22 1002.8 1002.7 0.0
22/02:00pm 33.8 30.8 19.8 43 9.3 NW 35 46 19 25 1003.2 1003.1 0.0
22/01:30pm 33.6 31.4 21.4 48 8.3 WNW 35 41 19 22 1003.5 1003.4 0.0
22/01:00pm 32.8 30.9 22.0 53 7.4 WNW 35 43 19 23 1004.0 1003.9 0.0
22/12:30pm 33.8 32.9 22.2 50 7.9 WNW 30 33 16 18 1004.4 1004.3 0.0
22/12:00pm 34.9 34.9 21.6 46 9.1 WNW 24 32 13 17 1004.5 1004.4 0.0
22/11:30am 33.9 34.7 20.6 45 8.9 W 17 30 9 16 1005.0 1004.9 0.0
22/11:00am 33.8 33.9 17.5 38 10.5 SW 13 20 7 11 1005.3 1005.2 0.0
22/10:30am 32.2 33.0 19.1 45 8.6 SW 13 20 7 11 1005.8 1005.7 0.0
22/10:00am 31.3 31.6 20.3 52 7.3 WSW 19 22 10 12 1005.9 1005.8 0.0
22/09:30am 31.0 32.0 20.3 53 7.1 SW 15 20 8 11 1006.1 1006.0 0.0
22/09:00am 30.5 31.0 20.1 53 6.9 SW 17 22 9 12 1006.2 1006.1 2.2
22/08:30am 29.4 29.7 20.3 58 6.0 SSW 19 22 10 12 1006.2 1006.1 2.2
22/08:00am 27.9 27.4 19.9 61 5.2 SSW 22 26 12 14 1005.9 1005.8 2.2
22/07:30am 27.2 26.4 20.0 64 4.7 SW 24 28 13 15 1005.9 1005.8 2.2
22/07:00am 27.1 27.5 20.9 69 4.1 SW 20 28 11 15 1005.8 1005.7 2.2
22/06:30am 26.9 27.7 21.4 72 3.7 SW 19 24 10 13 1005.7 1005.6 2.2
22/06:00am 26.9 28.5 22.1 75 3.2 WSW 17 24 9 13 1005.3 1005.2 2.2
22/05:30am 27.2 28.9 23.4 80 2.6 WSW 20 26 11 14 1005.1 1005.0 2.2
22/05:00am 27.3 29.2 23.7 81 2.5 SW 20 28 11 15 1005.0 1004.9 2.2
22/04:30am 27.5 28.6 23.7 80 2.6 WSW 24 32 13 17 1004.6 1004.5 2.2
22/04:00am 27.8 29.3 23.0 75 3.3 W 20 24 11 13 1004.2 1004.1 2.2
22/03:30am 28.6 29.9 22.6 70 4.1 W 20 26 11 14 1004.3 1004.2 2.2
22/03:00am 29.0 32.2 25.6 82 2.4 WNW 19 24 10 13 1004.4 1004.3 2.2
22/02:30am 28.9 31.7 25.3 81 2.5 WNW 20 24 11 13 1004.2 1004.1 2.2
22/02:00am 29.1 32.0 25.1 79 2.8 NW 19 24 10 13 1004.6 1004.5 2.2
22/01:30am 29.4 31.4 24.0 72 3.7 NW 20 28 11 15 1004.8 1004.7 2.2
22/01:00am 29.5 31.2 23.4 69 4.2 NNW 20 28 11 15 1005.2 1005.1 2.2
22/12:30am 29.4 30.4 22.9 68 4.4 NNW 22 26 12 14 1005.2 1005.1 2.2
22/12:00am 29.5 31.0 23.0 68 4.5 N 20 26 11 14 1005.3 1005.2 2.2
 
Date/Time
WST
Temp
°C
App
Temp
°C
Dew
Point
°C
Rel
Hum
%
Delta-T
°C
Wind Press
QNH
hPa
Press
MSL
hPa
Rain since
9am
mm
Dir  Spd
km/h
Gust
km/h
Spd
kts
Gust
kts
21/11:30pm 29.5 30.2 23.0 68 4.4 N 24 30 13 16 1005.4 1005.3 2.2
21/11:00pm 29.2 29.9 22.2 66 4.7 NNE 22 30 12 16 1005.9 1005.8 2.2
21/10:30pm 28.8 29.1 21.6 65 4.8 NE 22 32 12 17 1006.0 1005.9 2.2
21/10:00pm 28.5 27.9 21.3 65 4.8 NE 26 32 14 17 1006.1 1006.0 2.2
21/09:30pm 28.4 26.8 20.7 63 5.1 NE 30 39 16 21 1006.2 1006.1 2.2
21/09:00pm 30.1 30.5 23.8 69 4.4 NE 28 43 15 23 1006.0 1005.9 2.2
21/08:34pm 30.2 30.7 24.6 72 3.9 ENE 30 37 16 20 1005.9 1005.8 2.2
21/08:30pm 29.5 30.8 25.3 78 3.0 NE 28 37 15 20 1005.9 1005.8 2.2
21/08:17pm 29.9 32.8 26.5 82 2.4 ENE 24 33 13 18 1005.9 1005.8 2.0
21/08:00pm 32.2 35.6 25.3 67 4.9 E 17 30 9 16 1005.8 1005.7 0.0
21/07:30pm 32.7 35.8 24.2 61 5.9 NW 15 17 8 9 1004.5 1004.4 0.0
21/07:00pm 33.2 35.5 24.4 60 6.2 NW 20 26 11 14 1004.2 1004.1 0.0
21/06:30pm 33.5 36.0 23.8 57 6.8 NW 17 20 9 11 1003.6 1003.5 0.0
21/06:00pm 34.2 36.4 23.2 52 7.6 NW 17 20 9 11 1003.1 1003.0 0.0

Other formats

Comma delimited format used in spreadsheet applications
http://www.bom.gov.au/fwo/IDW60801/IDW60801.95305.axf

JavaScript Object Notation format (JSON) in row-major order
http://www.bom.gov.au/fwo/IDW60801/IDW60801.95305.json

Data quality

Most of these data are generated automatically and are frequently updated. Quality checks on data are not normally performed. It is possible for incorrect values to appear. Refer to information at About Latest Weather Observations and please check the disclaimer before using these data.